sensor_id;sensor_type;location;lat;lon;timestamp;temperature;humidity
11744;DHT22;5929;51.906;7.674;2023-09-08T00:00:19;18.10;99.90
11744;DHT22;5929;51.906;7.674;2023-09-08T00:02:46;18.00;99.90
11744;DHT22;5929;51.906;7.674;2023-09-08T00:05:15;18.00;99.90
11744;DHT22;5929;51.906;7.674;2023-09-08T00:07:42;17.90;99.90
11744;DHT22;5929;51.906;7.674;2023-09-08T00:10:09;17.80;99.90
11744;DHT22;5929;51.906;7.674;2023-09-08T00:12:37;17.70;99.90
11744;DHT22;5929;51.906;7.674;2023-09-08T00:15:09;17.60;99.90
11744;DHT22;5929;51.906;7.674;2023-09-08T00:17:36;17.60;99.90
11744;DHT22;5929;51.906;7.674;2023-09-08T00:20:06;17.60;99.90
11744;DHT22;5929;51.906;7.674;2023-09-08T00:22:34;17.60;99.90
11744;DHT22;5929;51.906;7.674;2023-09-08T00:25:01;17.60;99.90
11744;DHT22;5929;51.906;7.674;2023-09-08T00:27:27;17.60;99.90
11744;DHT22;5929;51.906;7.674;2023-09-08T00:29:54;17.60;99.90
11744;DHT22;5929;51.906;7.674;2023-09-08T00:32:22;17.50;99.90
11744;DHT22;5929;51.906;7.674;2023-09-08T00:34:49;17.50;99.90
11744;DHT22;5929;51.906;7.674;2023-09-08T00:37:16;17.50;99.90
11744;DHT22;5929;51.906;7.674;2023-09-08T00:39:42;17.50;99.90
11744;DHT22;5929;51.906;7.674;2023-09-08T00:42:09;17.40;99.90
11744;DHT22;5929;51.906;7.674;2023-09-08T00:44:38;17.40;99.90
11744;DHT22;5929;51.906;7.674;2023-09-08T00:47:05;17.40;99.90
11744;DHT22;5929;51.906;7.674;2023-09-08T00:49:34;17.40;99.90
11744;DHT22;5929;51.906;7.674;2023-09-08T00:52:01;17.30;99.90
11744;DHT22;5929;51.906;7.674;2023-09-08T00:54:27;17.30;99.90
11744;DHT22;5929;51.906;7.674;2023-09-08T00:56:56;17.30;99.90
11744;DHT22;5929;51.906;7.674;2023-09-08T00:59:22;17.30;99.90
11744;DHT22;5929;51.906;7.674;2023-09-08T01:01:50;17.20;99.90
11744;DHT22;5929;51.906;7.674;2023-09-08T01:04:17;17.20;99.90
11744;DHT22;5929;51.906;7.674;2023-09-08T01:06:45;17.10;99.90
11744;DHT22;5929;51.906;7.674;2023-09-08T01:09:13;17.10;99.90
11744;DHT22;5929;51.906;7.674;2023-09-08T01:11:40;17.10;99.90
11744;DHT22;5929;51.906;7.674;2023-09-08T01:14:12;17.10;99.90
11744;DHT22;5929;51.906;7.674;2023-09-08T01:16:39;17.10;99.90
11744;DHT22;5929;51.906;7.674;2023-09-08T01:19:07;17.10;99.90
11744;DHT22;5929;51.906;7.674;2023-09-08T01:22:07;17.10;99.90
11744;DHT22;5929;51.906;7.674;2023-09-08T01:25:05;17.10;99.90
11744;DHT22;5929;51.906;7.674;2023-09-08T01:27:35;17.10;99.90
11744;DHT22;5929;51.906;7.674;2023-09-08T01:30:05;17.10;99.90
11744;DHT22;5929;51.906;7.674;2023-09-08T01:32:35;17.10;99.90
11744;DHT22;5929;51.906;7.674;2023-09-08T01:35:02;17.10;99.90
11744;DHT22;5929;51.906;7.674;2023-09-08T01:37:29;17.00;99.90
11744;DHT22;5929;51.906;7.674;2023-09-08T01:39:56;17.00;99.90
11744;DHT22;5929;51.906;7.674;2023-09-08T01:42:24;17.00;99.90
11744;DHT22;5929;51.906;7.674;2023-09-08T01:44:51;17.00;99.90
11744;DHT22;5929;51.906;7.674;2023-09-08T01:47:18;17.00;99.90
11744;DHT22;5929;51.906;7.674;2023-09-08T01:49:45;17.00;99.90
11744;DHT22;5929;51.906;7.674;2023-09-08T01:52:11;16.90;99.90
11744;DHT22;5929;51.906;7.674;2023-09-08T01:54:38;16.90;99.90
11744;DHT22;5929;51.906;7.674;2023-09-08T01:57:05;16.90;99.90
11744;DHT22;5929;51.906;7.674;2023-09-08T01:59:33;16.90;99.90
11744;DHT22;5929;51.906;7.674;2023-09-08T02:02:00;16.80;99.90
11744;DHT22;5929;51.906;7.674;2023-09-08T02:04:27;16.80;99.90
11744;DHT22;5929;51.906;7.674;2023-09-08T02:06:56;16.80;99.90
11744;DHT22;5929;51.906;7.674;2023-09-08T02:09:30;16.70;99.90
11744;DHT22;5929;51.906;7.674;2023-09-08T02:11:57;16.70;99.90
11744;DHT22;5929;51.906;7.674;2023-09-08T02:14:24;16.70;99.90
11744;DHT22;5929;51.906;7.674;2023-09-08T02:16:52;16.70;99.90
11744;DHT22;5929;51.906;7.674;2023-09-08T02:19:19;16.60;99.90
11744;DHT22;5929;51.906;7.674;2023-09-08T02:21:46;16.70;99.90
11744;DHT22;5929;51.906;7.674;2023-09-08T02:24:13;16.60;99.90
11744;DHT22;5929;51.906;7.674;2023-09-08T02:26:40;16.50;99.90
11744;DHT22;5929;51.906;7.674;2023-09-08T02:29:07;16.50;99.90
11744;DHT22;5929;51.906;7.674;2023-09-08T02:31:34;16.50;99.90
11744;DHT22;5929;51.906;7.674;2023-09-08T02:34:02;16.50;99.90
11744;DHT22;5929;51.906;7.674;2023-09-08T02:36:30;16.50;99.90
11744;DHT22;5929;51.906;7.674;2023-09-08T02:38:56;16.50;99.90
11744;DHT22;5929;51.906;7.674;2023-09-08T02:41:23;16.50;99.90
11744;DHT22;5929;51.906;7.674;2023-09-08T02:43:53;16.50;99.90
11744;DHT22;5929;51.906;7.674;2023-09-08T02:46:19;16.40;99.90
11744;DHT22;5929;51.906;7.674;2023-09-08T02:48:46;16.40;99.90
11744;DHT22;5929;51.906;7.674;2023-09-08T02:51:14;16.40;99.90
11744;DHT22;5929;51.906;7.674;2023-09-08T02:53:41;16.40;99.90
11744;DHT22;5929;51.906;7.674;2023-09-08T02:56:08;16.40;99.90
11744;DHT22;5929;51.906;7.674;2023-09-08T02:58:35;16.40;99.90
11744;DHT22;5929;51.906;7.674;2023-09-08T03:01:12;16.40;99.90
11744;DHT22;5929;51.906;7.674;2023-09-08T03:03:40;16.30;99.90
11744;DHT22;5929;51.906;7.674;2023-09-08T03:06:08;16.40;99.90
11744;DHT22;5929;51.906;7.674;2023-09-08T03:08:36;16.40;99.90
11744;DHT22;5929;51.906;7.674;2023-09-08T03:11:04;16.30;99.90
11744;DHT22;5929;51.906;7.674;2023-09-08T03:13:31;16.30;99.90
11744;DHT22;5929;51.906;7.674;2023-09-08T03:16:02;16.30;99.90
11744;DHT22;5929;51.906;7.674;2023-09-08T03:18:29;16.30;99.90
11744;DHT22;5929;51.906;7.674;2023-09-08T03:20:58;16.20;99.90
11744;DHT22;5929;51.906;7.674;2023-09-08T03:23:27;16.20;99.90
11744;DHT22;5929;51.906;7.674;2023-09-08T03:25:55;16.20;99.90
11744;DHT22;5929;51.906;7.674;2023-09-08T03:28:22;16.20;99.90
11744;DHT22;5929;51.906;7.674;2023-09-08T03:30:49;16.10;99.90
11744;DHT22;5929;51.906;7.674;2023-09-08T03:33:15;16.10;99.90
11744;DHT22;5929;51.906;7.674;2023-09-08T03:35:42;16.10;99.90
11744;DHT22;5929;51.906;7.674;2023-09-08T03:38:09;16.10;99.90
11744;DHT22;5929;51.906;7.674;2023-09-08T03:40:36;16.10;99.90
11744;DHT22;5929;51.906;7.674;2023-09-08T03:43:05;16.10;99.90
11744;DHT22;5929;51.906;7.674;2023-09-08T03:45:31;16.10;99.90
11744;DHT22;5929;51.906;7.674;2023-09-08T03:47:58;16.00;99.90
11744;DHT22;5929;51.906;7.674;2023-09-08T03:50:25;16.00;99.90
11744;DHT22;5929;51.906;7.674;2023-09-08T03:52:55;15.90;99.90
11744;DHT22;5929;51.906;7.674;2023-09-08T03:55:21;15.90;99.90
11744;DHT22;5929;51.906;7.674;2023-09-08T03:57:48;15.90;99.90
11744;DHT22;5929;51.906;7.674;2023-09-08T04:00:17;15.90;99.90
11744;DHT22;5929;51.906;7.674;2023-09-08T04:02:47;15.80;99.90
11744;DHT22;5929;51.906;7.674;2023-09-08T04:05:14;15.70;99.90
11744;DHT22;5929;51.906;7.674;2023-09-08T04:07:41;15.70;99.90
11744;DHT22;5929;51.906;7.674;2023-09-08T04:10:08;15.70;99.90
11744;DHT22;5929;51.906;7.674;2023-09-08T04:12:35;15.70;99.90
11744;DHT22;5929;51.906;7.674;2023-09-08T04:15:05;15.60;99.90
11744;DHT22;5929;51.906;7.674;2023-09-08T04:17:33;15.60;99.90
11744;DHT22;5929;51.906;7.674;2023-09-08T04:20:01;15.50;99.90
11744;DHT22;5929;51.906;7.674;2023-09-08T04:22:30;15.50;99.90
11744;DHT22;5929;51.906;7.674;2023-09-08T04:24:57;15.40;99.90
11744;DHT22;5929;51.906;7.674;2023-09-08T04:27:23;15.40;99.90
11744;DHT22;5929;51.906;7.674;2023-09-08T04:29:50;15.30;99.90
11744;DHT22;5929;51.906;7.674;2023-09-08T04:32:17;15.30;99.90
11744;DHT22;5929;51.906;7.674;2023-09-08T04:34:45;15.30;99.90
11744;DHT22;5929;51.906;7.674;2023-09-08T04:37:12;15.20;99.90
11744;DHT22;5929;51.906;7.674;2023-09-08T04:39:39;15.20;99.90
11744;DHT22;5929;51.906;7.674;2023-09-08T04:42:06;15.20;99.90
11744;DHT22;5929;51.906;7.674;2023-09-08T04:44:33;15.10;99.90
11744;DHT22;5929;51.906;7.674;2023-09-08T04:47:03;15.10;99.90
11744;DHT22;5929;51.906;7.674;2023-09-08T04:49:30;15.10;99.90
11744;DHT22;5929;51.906;7.674;2023-09-08T04:51:58;15.10;99.90
11744;DHT22;5929;51.906;7.674;2023-09-08T04:54:25;15.10;99.90
11744;DHT22;5929;51.906;7.674;2023-09-08T04:56:52;15.00;99.90
11744;DHT22;5929;51.906;7.674;2023-09-08T04:59:19;15.00;99.90
11744;DHT22;5929;51.906;7.674;2023-09-08T05:01:48;15.00;99.90
11744;DHT22;5929;51.906;7.674;2023-09-08T05:04:16;15.00;99.90
11744;DHT22;5929;51.906;7.674;2023-09-08T05:06:43;15.00;99.90
11744;DHT22;5929;51.906;7.674;2023-09-08T05:09:12;15.00;99.90
11744;DHT22;5929;51.906;7.674;2023-09-08T05:11:39;15.00;99.90
11744;DHT22;5929;51.906;7.674;2023-09-08T05:14:06;15.00;99.90
11744;DHT22;5929;51.906;7.674;2023-09-08T05:16:32;15.00;99.90
11744;DHT22;5929;51.906;7.674;2023-09-08T05:19:05;15.00;99.90
11744;DHT22;5929;51.906;7.674;2023-09-08T05:21:33;15.00;99.90
11744;DHT22;5929;51.906;7.674;2023-09-08T05:24:00;15.00;99.90
11744;DHT22;5929;51.906;7.674;2023-09-08T05:26:28;15.10;99.90
11744;DHT22;5929;51.906;7.674;2023-09-08T05:28:55;15.10;99.90
11744;DHT22;5929;51.906;7.674;2023-09-08T05:31:22;15.20;99.90
11744;DHT22;5929;51.906;7.674;2023-09-08T05:33:49;15.20;99.90
11744;DHT22;5929;51.906;7.674;2023-09-08T05:36:15;15.30;99.90
11744;DHT22;5929;51.906;7.674;2023-09-08T05:38:42;15.40;99.90
11744;DHT22;5929;51.906;7.674;2023-09-08T05:41:09;15.30;99.90
11744;DHT22;5929;51.906;7.674;2023-09-08T05:43:37;15.40;99.90
11744;DHT22;5929;51.906;7.674;2023-09-08T05:46:06;15.40;99.90
11744;DHT22;5929;51.906;7.674;2023-09-08T05:48:33;15.50;99.90
11744;DHT22;5929;51.906;7.674;2023-09-08T05:51:00;15.50;99.90
11744;DHT22;5929;51.906;7.674;2023-09-08T05:53:27;15.60;99.90
11744;DHT22;5929;51.906;7.674;2023-09-08T05:55:54;15.70;99.90
11744;DHT22;5929;51.906;7.674;2023-09-08T05:58:21;15.70;99.90
11744;DHT22;5929;51.906;7.674;2023-09-08T06:00:51;15.70;99.90
11744;DHT22;5929;51.906;7.674;2023-09-08T06:03:17;15.80;99.90
11744;DHT22;5929;51.906;7.674;2023-09-08T06:05:44;15.90;99.90
11744;DHT22;5929;51.906;7.674;2023-09-08T06:08:11;16.00;99.90
11744;DHT22;5929;51.906;7.674;2023-09-08T06:10:38;16.00;99.90
11744;DHT22;5929;51.906;7.674;2023-09-08T06:13:05;16.10;99.90
11744;DHT22;5929;51.906;7.674;2023-09-08T06:15:33;16.20;99.90
11744;DHT22;5929;51.906;7.674;2023-09-08T06:18:04;16.20;99.90
11744;DHT22;5929;51.906;7.674;2023-09-08T06:20:33;16.30;99.90
11744;DHT22;5929;51.906;7.674;2023-09-08T06:23:00;16.40;99.90
11744;DHT22;5929;51.906;7.674;2023-09-08T06:25:27;16.50;99.90
11744;DHT22;5929;51.906;7.674;2023-09-08T06:27:54;16.50;99.90
11744;DHT22;5929;51.906;7.674;2023-09-08T06:30:21;16.60;99.90
11744;DHT22;5929;51.906;7.674;2023-09-08T06:32:48;16.70;99.90
11744;DHT22;5929;51.906;7.674;2023-09-08T06:35:16;16.70;99.90
11744;DHT22;5929;51.906;7.674;2023-09-08T06:37:43;16.80;99.90
11744;DHT22;5929;51.906;7.674;2023-09-08T06:40:10;16.90;99.90
11744;DHT22;5929;51.906;7.674;2023-09-08T06:42:37;16.90;99.90
11744;DHT22;5929;51.906;7.674;2023-09-08T06:45:04;17.00;99.90
11744;DHT22;5929;51.906;7.674;2023-09-08T06:47:31;17.10;99.90
11744;DHT22;5929;51.906;7.674;2023-09-08T06:50:00;17.10;99.90
11744;DHT22;5929;51.906;7.674;2023-09-08T06:52:29;17.20;99.90
11744;DHT22;5929;51.906;7.674;2023-09-08T06:54:56;17.30;99.90
11744;DHT22;5929;51.906;7.674;2023-09-08T06:57:22;17.30;99.90
11744;DHT22;5929;51.906;7.674;2023-09-08T06:59:49;17.40;99.90
11744;DHT22;5929;51.906;7.674;2023-09-08T07:02:16;17.50;99.90
11744;DHT22;5929;51.906;7.674;2023-09-08T07:04:43;17.50;99.90
11744;DHT22;5929;51.906;7.674;2023-09-08T07:07:10;17.60;99.90
11744;DHT22;5929;51.906;7.674;2023-09-08T07:09:39;17.60;99.90
11744;DHT22;5929;51.906;7.674;2023-09-08T07:12:06;17.70;99.90
11744;DHT22;5929;51.906;7.674;2023-09-08T07:14:33;17.70;99.90
11744;DHT22;5929;51.906;7.674;2023-09-08T07:16:59;17.80;99.90
11744;DHT22;5929;51.906;7.674;2023-09-08T07:19:26;17.90;99.90
11744;DHT22;5929;51.906;7.674;2023-09-08T07:21:53;17.90;99.90
11744;DHT22;5929;51.906;7.674;2023-09-08T07:24:20;18.00;99.90
11744;DHT22;5929;51.906;7.674;2023-09-08T07:26:49;18.00;99.90
11744;DHT22;5929;51.906;7.674;2023-09-08T07:29:16;18.10;99.90
11744;DHT22;5929;51.906;7.674;2023-09-08T07:31:43;18.20;99.90
11744;DHT22;5929;51.906;7.674;2023-09-08T07:34:12;18.20;99.90
11744;DHT22;5929;51.906;7.674;2023-09-08T07:36:38;18.30;99.90
11744;DHT22;5929;51.906;7.674;2023-09-08T07:39:05;18.50;99.90
11744;DHT22;5929;51.906;7.674;2023-09-08T07:41:32;18.60;99.90
11744;DHT22;5929;51.906;7.674;2023-09-08T07:44:01;18.80;99.90
11744;DHT22;5929;51.906;7.674;2023-09-08T07:46:28;19.00;99.90
11744;DHT22;5929;51.906;7.674;2023-09-08T07:48:58;19.10;99.90
11744;DHT22;5929;51.906;7.674;2023-09-08T07:51:24;19.20;99.90
11744;DHT22;5929;51.906;7.674;2023-09-08T07:53:52;19.20;99.90
11744;DHT22;5929;51.906;7.674;2023-09-08T07:56:19;19.30;99.90
11744;DHT22;5929;51.906;7.674;2023-09-08T07:58:46;19.30;99.90
11744;DHT22;5929;51.906;7.674;2023-09-08T08:01:14;19.50;99.90
11744;DHT22;5929;51.906;7.674;2023-09-08T08:03:40;19.60;99.90
11744;DHT22;5929;51.906;7.674;2023-09-08T08:06:07;19.60;99.90
11744;DHT22;5929;51.906;7.674;2023-09-08T08:08:34;19.60;99.90
11744;DHT22;5929;51.906;7.674;2023-09-08T08:11:08;19.70;99.90
11744;DHT22;5929;51.906;7.674;2023-09-08T08:13:38;19.80;99.90
11744;DHT22;5929;51.906;7.674;2023-09-08T08:16:04;20.00;99.90
11744;DHT22;5929;51.906;7.674;2023-09-08T08:18:33;20.10;99.90
11744;DHT22;5929;51.906;7.674;2023-09-08T08:20:59;20.20;99.90
11744;DHT22;5929;51.906;7.674;2023-09-08T08:23:29;20.30;99.90
11744;DHT22;5929;51.906;7.674;2023-09-08T08:25:55;20.40;99.90
11744;DHT22;5929;51.906;7.674;2023-09-08T08:28:22;20.40;99.90
11744;DHT22;5929;51.906;7.674;2023-09-08T08:30:49;20.50;99.90
11744;DHT22;5929;51.906;7.674;2023-09-08T08:33:16;20.50;99.90
11744;DHT22;5929;51.906;7.674;2023-09-08T08:35:49;20.50;99.90
11744;DHT22;5929;51.906;7.674;2023-09-08T08:38:16;20.60;99.90
11744;DHT22;5929;51.906;7.674;2023-09-08T08:40:43;20.80;99.90
11744;DHT22;5929;51.906;7.674;2023-09-08T08:43:10;20.80;99.90
11744;DHT22;5929;51.906;7.674;2023-09-08T08:45:38;20.90;99.90
11744;DHT22;5929;51.906;7.674;2023-09-08T08:48:06;20.90;99.90
11744;DHT22;5929;51.906;7.674;2023-09-08T08:50:35;21.00;99.90
11744;DHT22;5929;51.906;7.674;2023-09-08T08:53:03;21.20;99.90
11744;DHT22;5929;51.906;7.674;2023-09-08T08:55:30;21.40;99.90
11744;DHT22;5929;51.906;7.674;2023-09-08T08:58:02;21.70;99.90
11744;DHT22;5929;51.906;7.674;2023-09-08T09:00:34;21.90;99.90
11744;DHT22;5929;51.906;7.674;2023-09-08T09:03:04;22.20;99.90
11744;DHT22;5929;51.906;7.674;2023-09-08T09:05:32;22.20;99.90
11744;DHT22;5929;51.906;7.674;2023-09-08T09:08:03;22.30;99.90
11744;DHT22;5929;51.906;7.674;2023-09-08T09:10:31;22.30;99.90
11744;DHT22;5929;51.906;7.674;2023-09-08T09:12:57;22.30;99.90
11744;DHT22;5929;51.906;7.674;2023-09-08T09:15:31;22.40;99.90
11744;DHT22;5929;51.906;7.674;2023-09-08T09:18:02;22.60;99.90
11744;DHT22;5929;51.906;7.674;2023-09-08T09:20:30;22.90;99.90
11744;DHT22;5929;51.906;7.674;2023-09-08T09:22:56;23.30;99.90
11744;DHT22;5929;51.906;7.674;2023-09-08T09:25:27;23.40;99.90
11744;DHT22;5929;51.906;7.674;2023-09-08T09:27:55;23.30;99.90
11744;DHT22;5929;51.906;7.674;2023-09-08T09:30:22;23.60;99.90
11744;DHT22;5929;51.906;7.674;2023-09-08T09:32:58;23.70;99.90
11744;DHT22;5929;51.906;7.674;2023-09-08T09:35:40;23.90;99.90
11744;DHT22;5929;51.906;7.674;2023-09-08T09:38:07;24.00;99.90
11744;DHT22;5929;51.906;7.674;2023-09-08T09:40:37;23.80;99.90
11744;DHT22;5929;51.906;7.674;2023-09-08T09:43:05;23.90;99.90
11744;DHT22;5929;51.906;7.674;2023-09-08T09:45:33;23.90;99.90
11744;DHT22;5929;51.906;7.674;2023-09-08T09:48:01;23.90;99.90
11744;DHT22;5929;51.906;7.674;2023-09-08T09:50:29;24.30;99.90
11744;DHT22;5929;51.906;7.674;2023-09-08T09:52:57;24.60;99.90
11744;DHT22;5929;51.906;7.674;2023-09-08T09:55:25;24.70;99.90
11744;DHT22;5929;51.906;7.674;2023-09-08T09:57:57;24.80;99.90
11744;DHT22;5929;51.906;7.674;2023-09-08T10:00:26;24.70;99.90
11744;DHT22;5929;51.906;7.674;2023-09-08T10:02:54;24.70;99.90
11744;DHT22;5929;51.906;7.674;2023-09-08T10:05:21;24.80;99.90
11744;DHT22;5929;51.906;7.674;2023-09-08T10:07:49;25.00;99.90
11744;DHT22;5929;51.906;7.674;2023-09-08T10:10:17;25.00;99.90
11744;DHT22;5929;51.906;7.674;2023-09-08T10:12:45;25.10;99.90
11744;DHT22;5929;51.906;7.674;2023-09-08T10:15:20;25.40;99.90
11744;DHT22;5929;51.906;7.674;2023-09-08T10:17:52;25.40;99.90
11744;DHT22;5929;51.906;7.674;2023-09-08T10:20:20;25.70;99.90
11744;DHT22;5929;51.906;7.674;2023-09-08T10:22:52;25.80;99.90
11744;DHT22;5929;51.906;7.674;2023-09-08T10:25:21;25.80;99.90
11744;DHT22;5929;51.906;7.674;2023-09-08T10:27:50;25.90;99.90
11744;DHT22;5929;51.906;7.674;2023-09-08T10:30:19;25.90;99.90
11744;DHT22;5929;51.906;7.674;2023-09-08T10:32:48;26.10;99.90
11744;DHT22;5929;51.906;7.674;2023-09-08T10:35:16;26.40;99.90
11744;DHT22;5929;51.906;7.674;2023-09-08T10:37:44;26.60;99.90
11744;DHT22;5929;51.906;7.674;2023-09-08T10:40:21;26.70;99.90
11744;DHT22;5929;51.906;7.674;2023-09-08T10:42:49;26.80;99.90
11744;DHT22;5929;51.906;7.674;2023-09-08T10:45:18;27.00;99.90
11744;DHT22;5929;51.906;7.674;2023-09-08T10:47:56;27.10;99.90
11744;DHT22;5929;51.906;7.674;2023-09-08T10:50:30;27.20;99.90
11744;DHT22;5929;51.906;7.674;2023-09-08T10:53:14;27.40;99.90
11744;DHT22;5929;51.906;7.674;2023-09-08T10:55:42;27.50;99.90
11744;DHT22;5929;51.906;7.674;2023-09-08T10:58:18;27.60;99.90
11744;DHT22;5929;51.906;7.674;2023-09-08T11:00:51;27.80;99.90
11744;DHT22;5929;51.906;7.674;2023-09-08T11:03:26;28.00;99.90
11744;DHT22;5929;51.906;7.674;2023-09-08T11:05:57;28.20;99.90
11744;DHT22;5929;51.906;7.674;2023-09-08T11:08:26;28.40;99.90
11744;DHT22;5929;51.906;7.674;2023-09-08T11:10:54;29.40;99.90
11744;DHT22;5929;51.906;7.674;2023-09-08T11:13:23;31.00;99.90
11744;DHT22;5929;51.906;7.674;2023-09-08T11:15:54;32.40;98.50
11744;DHT22;5929;51.906;7.674;2023-09-08T11:18:26;33.60;97.90
11744;DHT22;5929;51.906;7.674;2023-09-08T11:20:53;34.00;97.90
11744;DHT22;5929;51.906;7.674;2023-09-08T11:23:20;35.10;95.50
11744;DHT22;5929;51.906;7.674;2023-09-08T11:25:47;35.30;95.30
11744;DHT22;5929;51.906;7.674;2023-09-08T11:28:15;35.90;93.30
11744;DHT22;5929;51.906;7.674;2023-09-08T11:30:42;36.20;93.30
11744;DHT22;5929;51.906;7.674;2023-09-08T11:33:15;36.70;93.30
11744;DHT22;5929;51.906;7.674;2023-09-08T11:35:42;36.50;91.90
11744;DHT22;5929;51.906;7.674;2023-09-08T11:38:09;36.90;90.30
11744;DHT22;5929;51.906;7.674;2023-09-08T11:40:37;37.20;91.10
11744;DHT22;5929;51.906;7.674;2023-09-08T11:43:07;37.20;90.00
11744;DHT22;5929;51.906;7.674;2023-09-08T11:45:35;37.30;90.10
11744;DHT22;5929;51.906;7.674;2023-09-08T11:48:04;37.40;89.60
11744;DHT22;5929;51.906;7.674;2023-09-08T11:50:33;36.80;90.30
11744;DHT22;5929;51.906;7.674;2023-09-08T11:52:59;36.80;91.00
11744;DHT22;5929;51.906;7.674;2023-09-08T11:55:28;36.60;90.80
11744;DHT22;5929;51.906;7.674;2023-09-08T11:57:55;36.40;90.90
11744;DHT22;5929;51.906;7.674;2023-09-08T12:00:25;37.10;90.30
11744;DHT22;5929;51.906;7.674;2023-09-08T12:02:52;37.30;90.30
11744;DHT22;5929;51.906;7.674;2023-09-08T12:05:24;37.70;89.90
11744;DHT22;5929;51.906;7.674;2023-09-08T12:07:54;37.00;90.20
11744;DHT22;5929;51.906;7.674;2023-09-08T12:10:22;37.50;88.60
11744;DHT22;5929;51.906;7.674;2023-09-08T12:12:51;37.80;90.50
11744;DHT22;5929;51.906;7.674;2023-09-08T12:15:33;38.00;85.70
11744;DHT22;5929;51.906;7.674;2023-09-08T12:18:04;38.30;85.00
11744;DHT22;5929;51.906;7.674;2023-09-08T12:20:32;38.60;84.30
11744;DHT22;5929;51.906;7.674;2023-09-08T12:23:02;38.10;85.10
11744;DHT22;5929;51.906;7.674;2023-09-08T12:25:30;37.40;86.70
11744;DHT22;5929;51.906;7.674;2023-09-08T12:28:00;37.30;87.90
11744;DHT22;5929;51.906;7.674;2023-09-08T12:30:31;37.40;86.30
11744;DHT22;5929;51.906;7.674;2023-09-08T12:33:00;37.90;82.70
11744;DHT22;5929;51.906;7.674;2023-09-08T12:35:28;38.20;82.60
11744;DHT22;5929;51.906;7.674;2023-09-08T12:38:01;38.20;85.00
11744;DHT22;5929;51.906;7.674;2023-09-08T12:40:30;37.00;86.70
11744;DHT22;5929;51.906;7.674;2023-09-08T12:42:59;35.90;88.80
11744;DHT22;5929;51.906;7.674;2023-09-08T12:45:27;36.20;87.30
11744;DHT22;5929;51.906;7.674;2023-09-08T12:47:54;36.80;88.20
11744;DHT22;5929;51.906;7.674;2023-09-08T12:50:23;37.30;87.50
11744;DHT22;5929;51.906;7.674;2023-09-08T12:52:50;37.80;83.00
11744;DHT22;5929;51.906;7.674;2023-09-08T12:55:18;37.90;83.90
11744;DHT22;5929;51.906;7.674;2023-09-08T12:57:45;37.90;83.20
11744;DHT22;5929;51.906;7.674;2023-09-08T13:00:14;38.30;82.30
11744;DHT22;5929;51.906;7.674;2023-09-08T13:02:41;38.20;82.90
11744;DHT22;5929;51.906;7.674;2023-09-08T13:05:08;38.40;83.30
11744;DHT22;5929;51.906;7.674;2023-09-08T13:07:35;38.30;83.30
11744;DHT22;5929;51.906;7.674;2023-09-08T13:10:02;38.60;80.40
11744;DHT22;5929;51.906;7.674;2023-09-08T13:12:30;38.30;82.80
11744;DHT22;5929;51.906;7.674;2023-09-08T13:14:57;38.30;82.40
11744;DHT22;5929;51.906;7.674;2023-09-08T13:17:23;38.10;81.60
11744;DHT22;5929;51.906;7.674;2023-09-08T13:19:50;37.00;85.00
11744;DHT22;5929;51.906;7.674;2023-09-08T13:22:18;36.60;84.00
11744;DHT22;5929;51.906;7.674;2023-09-08T13:24:45;36.20;85.00
11744;DHT22;5929;51.906;7.674;2023-09-08T13:27:12;36.30;82.60
11744;DHT22;5929;51.906;7.674;2023-09-08T13:29:44;36.30;84.60
11744;DHT22;5929;51.906;7.674;2023-09-08T13:32:11;36.30;83.10
11744;DHT22;5929;51.906;7.674;2023-09-08T13:34:38;36.20;83.40
11744;DHT22;5929;51.906;7.674;2023-09-08T13:37:05;36.10;82.50
11744;DHT22;5929;51.906;7.674;2023-09-08T13:39:32;35.70;83.80
11744;DHT22;5929;51.906;7.674;2023-09-08T13:42:00;35.20;86.50
11744;DHT22;5929;51.906;7.674;2023-09-08T13:44:27;35.30;84.30
11744;DHT22;5929;51.906;7.674;2023-09-08T13:46:55;35.30;81.30
11744;DHT22;5929;51.906;7.674;2023-09-08T13:49:22;35.20;83.70
11744;DHT22;5929;51.906;7.674;2023-09-08T13:51:49;34.80;81.90
11744;DHT22;5929;51.906;7.674;2023-09-08T13:54:17;34.60;82.20
11744;DHT22;5929;51.906;7.674;2023-09-08T13:56:44;34.10;82.10
11744;DHT22;5929;51.906;7.674;2023-09-08T13:59:11;33.60;82.70
11744;DHT22;5929;51.906;7.674;2023-09-08T14:01:38;33.40;82.20
11744;DHT22;5929;51.906;7.674;2023-09-08T14:04:06;33.20;82.90
11744;DHT22;5929;51.906;7.674;2023-09-08T14:06:33;33.00;83.00
11744;DHT22;5929;51.906;7.674;2023-09-08T14:09:00;32.70;84.70
11744;DHT22;5929;51.906;7.674;2023-09-08T14:11:27;32.60;87.80
11744;DHT22;5929;51.906;7.674;2023-09-08T14:13:53;32.40;84.30
11744;DHT22;5929;51.906;7.674;2023-09-08T14:16:20;32.40;84.50
11744;DHT22;5929;51.906;7.674;2023-09-08T14:18:50;32.30;84.00
11744;DHT22;5929;51.906;7.674;2023-09-08T14:21:18;32.20;84.70
11744;DHT22;5929;51.906;7.674;2023-09-08T14:23:45;32.10;83.80
11744;DHT22;5929;51.906;7.674;2023-09-08T14:26:12;32.10;85.50
11744;DHT22;5929;51.906;7.674;2023-09-08T14:28:39;32.30;85.40
11744;DHT22;5929;51.906;7.674;2023-09-08T14:31:05;32.30;84.70
11744;DHT22;5929;51.906;7.674;2023-09-08T14:33:32;32.30;86.10
11744;DHT22;5929;51.906;7.674;2023-09-08T14:35:59;32.50;86.70
11744;DHT22;5929;51.906;7.674;2023-09-08T14:38:27;32.50;86.90
11744;DHT22;5929;51.906;7.674;2023-09-08T14:40:55;32.60;87.00
11744;DHT22;5929;51.906;7.674;2023-09-08T14:43:25;32.70;86.10
11744;DHT22;5929;51.906;7.674;2023-09-08T14:45:52;32.50;86.30
11744;DHT22;5929;51.906;7.674;2023-09-08T14:48:19;32.80;88.00
11744;DHT22;5929;51.906;7.674;2023-09-08T14:50:46;33.00;86.40
11744;DHT22;5929;51.906;7.674;2023-09-08T14:53:13;33.30;85.50
11744;DHT22;5929;51.906;7.674;2023-09-08T14:55:41;33.20;88.90
11744;DHT22;5929;51.906;7.674;2023-09-08T14:58:09;33.50;87.40
11744;DHT22;5929;51.906;7.674;2023-09-08T15:00:37;33.60;85.60
11744;DHT22;5929;51.906;7.674;2023-09-08T15:03:05;33.80;85.40
11744;DHT22;5929;51.906;7.674;2023-09-08T15:05:31;34.00;82.90
11744;DHT22;5929;51.906;7.674;2023-09-08T15:07:58;33.70;85.50
11744;DHT22;5929;51.906;7.674;2023-09-08T15:10:28;34.10;84.40
11744;DHT22;5929;51.906;7.674;2023-09-08T15:12:56;33.80;87.30
11744;DHT22;5929;51.906;7.674;2023-09-08T15:15:23;34.00;86.00
11744;DHT22;5929;51.906;7.674;2023-09-08T15:17:53;34.30;84.90
11744;DHT22;5929;51.906;7.674;2023-09-08T15:20:20;34.50;85.80
11744;DHT22;5929;51.906;7.674;2023-09-08T15:22:48;34.70;85.50
11744;DHT22;5929;51.906;7.674;2023-09-08T15:25:14;34.70;86.70
11744;DHT22;5929;51.906;7.674;2023-09-08T15:27:41;34.80;85.70
11744;DHT22;5929;51.906;7.674;2023-09-08T15:30:14;35.00;82.90
11744;DHT22;5929;51.906;7.674;2023-09-08T15:32:43;35.10;81.70
11744;DHT22;5929;51.906;7.674;2023-09-08T15:35:10;35.00;84.10
11744;DHT22;5929;51.906;7.674;2023-09-08T15:37:37;35.20;82.10
11744;DHT22;5929;51.906;7.674;2023-09-08T15:40:05;35.00;80.90
11744;DHT22;5929;51.906;7.674;2023-09-08T15:42:39;34.80;85.00
11744;DHT22;5929;51.906;7.674;2023-09-08T15:45:06;35.10;83.00
11744;DHT22;5929;51.906;7.674;2023-09-08T15:47:34;35.20;84.40
11744;DHT22;5929;51.906;7.674;2023-09-08T15:50:01;35.40;83.60